Time;durP1;ratioP1;P1;durP2;ratioP2;P2;SDS_P1;SDS_P2;PMS_P1;PMS_P2;Temp;Humidity;BMP_temperature;BMP_pressure;BME280_temperature;BME280_humidity;BME280_pressure;Samples;Min_cycle;Max_cycle;Signal;HPM_P1;HPM_P2
2021/03/19 00:00:09;;;;;;;;;;;;;;;;;;2070440;28;7010;-64
2021/03/19 00:01:11;;;;;;;;;;;;;;;;;;2070836;28;7291;-64
2021/03/19 00:02:14;;;;;;;;;;;;;;;;;;2070110;28;7093;-64
2021/03/19 00:03:18;;;;;;;;;;;;;;;;;;2070811;28;9288;-64
2021/03/19 00:04:20;;;;;;;;;;;;;;;;;;2070534;28;7189;-64
2021/03/19 00:05:24;;;;;;;;;;;;;;;;;;2070391;28;7116;-64
2021/03/19 00:06:26;;;;;;;;;;;;;;;;;;2070640;28;7009;-64
2021/03/19 00:07:38;;;;;;;;;;;;;;;;;;2077083;28;7216;-64
2021/03/19 00:08:40;;;;;;;;;;;;;;;;;;2078401;28;7158;-64
2021/03/19 00:09:43;;;;;;;;;;;;;;;;;;2075555;28;7009;-64
2021/03/19 00:10:45;;;;;;;;;;;;;;;;;;2078491;28;7109;-64
2021/03/19 00:11:47;;;;;;;;;;;;;;;;;;2073131;28;7996;-64
2021/03/19 00:12:50;;;;;;;;;;;;;;;;;;2074633;28;7009;-64
2021/03/19 00:13:52;;;;;;;;;;;;;;;;;;2071748;28;7084;-64
2021/03/19 00:14:54;;;;;;;;;;;;;;;;;;2071997;28;7101;-64
2021/03/19 00:15:56;;;;;;;;;;;;;;;;;;2079696;28;7088;-64
2021/03/19 00:16:58;;;;;;;;;;;;;;;;;;2079792;28;7014;-64
2021/03/19 00:18:04;;;;;;;;;;;;;;;;;;2080036;28;7009;-64
2021/03/19 00:19:08;;;;;;;;;;;;;;;;;;2073203;28;7054;-64
2021/03/19 00:20:11;;;;;;;;;;;;;;;;;;2080013;28;7088;-64
2021/03/19 00:21:14;;;;;;;;;;;;;;;;;;2078385;28;7348;-64
2021/03/19 00:22:15;;;;;;;;;;;;;;;;;;2071725;28;7108;-64
2021/03/19 00:23:18;;;;;;;;;;;;;;;;;;2075493;28;7048;-64
2021/03/19 00:24:20;;;;;;;;;;;;;;;;;;2079389;28;7010;-64
2021/03/19 00:25:23;;;;;;;;;;;;;;;;;;2079510;28;8031;-63
2021/03/19 00:26:25;;;;;;;;;;;;;;;;;;2079664;28;7348;-64
2021/03/19 00:27:27;;;;;;;;;;;;;;;;;;2079230;28;7092;-64
2021/03/19 00:28:29;;;;;;;;;;;;;;;;;;2079300;28;7009;-64
2021/03/19 00:29:31;;;;;;;;;;;;;;;;;;2078994;28;7006;-63
2021/03/19 00:30:34;;;;;;;;;;;;;;;;;;2076522;28;7092;-64
2021/03/19 00:31:36;;;;;;;;;;;;;;;;;;2072263;28;7109;-64
2021/03/19 00:32:39;;;;;;;;;;;;;;;;;;2072307;28;7194;-64
2021/03/19 00:33:42;;;;;;;;;;;;;;;;;;2072251;28;7336;-64
2021/03/19 00:34:44;;;;;;;;;;;;;;;;;;2072070;28;8114;-64
2021/03/19 00:35:46;;;;;;;;;;;;;;;;;;2071595;28;7010;-64
2021/03/19 00:36:48;;;;;;;;;;;;;;;;;;2071895;28;7045;-64
2021/03/19 00:37:50;;;;;;;;;;;;;;;;;;2071175;28;7105;-64
2021/03/19 00:38:52;;;;;;;;;;;;;;;;;;2071757;28;7050;-64
2021/03/19 00:39:54;;;;;;;;;;;;;;;;;;2071535;28;8047;-64
2021/03/19 00:40:56;;;;;;;;;;;;;;;;;;2071544;28;7009;-64
2021/03/19 00:41:58;;;;;;;;;;;;;;;;;;2072073;28;7013;-64
2021/03/19 00:43:00;;;;;;;;;;;;;;;;;;2072324;28;7100;-64
2021/03/19 00:44:02;;;;;;;;;;;;;;;;;;2070516;28;7022;-64
2021/03/19 00:45:06;;;;;;;;;;;;;;;;;;2071605;28;7312;-64
2021/03/19 00:46:08;;;;;;;;;;;;;;;;;;2072064;28;7013;-64
2021/03/19 00:47:10;;;;;;;;;;;;;;;;;;2071567;28;7021;-64
2021/03/19 00:48:12;;;;;;;;;;;;;;;;;;2071595;28;7092;-64
2021/03/19 00:49:25;;;;;;;;;;;;;;;;;;2071703;28;7116;-64
2021/03/19 00:50:33;;;;;;;;;;;;;;;;;;2071667;28;7329;-63
2021/03/19 00:51:35;;;;;;;;;;;;;;;;;;2071461;28;7017;-64
2021/03/19 00:52:37;;;;;;;;;;;;;;;;;;2071473;28;7113;-64
2021/03/19 00:53:40;;;;;;;;;;;;;;;;;;2071569;28;7013;-64
2021/03/19 00:54:43;;;;;;;;;;;;;;;;;;2072178;28;7136;-64
2021/03/19 00:55:45;;;;;;;;;;;;;;;;;;2071611;28;8006;-64
2021/03/19 00:56:47;;;;;;;;;;;;;;;;;;2071661;28;8051;-63
2021/03/19 00:57:48;;;;;;;;;;;;;;;;;;2071636;28;7117;-64
2021/03/19 00:58:50;;;;;;;;;;;;;;;;;;2072191;28;7235;-64
2021/03/19 00:59:52;;;;;;;;;;;;;;;;;;2071818;28;7096;-63
2021/03/19 01:00:54;;;;;;;;;;;;;;;;;;2072470;28;7088;-64
2021/03/19 01:01:58;;;;;;;;;;;;;;;;;;2071188;28;7973;-64
2021/03/19 01:03:01;;;;;;;;;;;;;;;;;;2071952;28;8067;-63
2021/03/19 01:04:03;;;;;;;;;;;;;;;;;;2075349;28;7045;-64
2021/03/19 01:05:10;;;;;;;;;;;;;;;;;;2079581;28;7096;-64
2021/03/19 01:06:12;;;;;;;;;;;;;;;;;;2079916;28;8142;-64
2021/03/19 01:07:14;;;;;;;;;;;;;;;;;;2070637;28;7021;-64
2021/03/19 01:08:16;;;;;;;;;;;;;;;;;;2071839;28;7017;-64
2021/03/19 01:09:18;;;;;;;;;;;;;;;;;;2071451;28;7006;-64
2021/03/19 01:10:26;;;;;;;;;;;;;;;;;;2071574;28;7998;-64
2021/03/19 01:11:29;;;;;;;;;;;;;;;;;;2072982;28;7113;-64
2021/03/19 01:12:31;;;;;;;;;;;;;;;;;;2070331;28;7324;-64
2021/03/19 01:13:33;;;;;;;;;;;;;;;;;;2071537;28;7352;-63
2021/03/19 01:14:35;;;;;;;;;;;;;;;;;;2071062;28;7117;-64
2021/03/19 01:15:37;;;;;;;;;;;;;;;;;;2071266;28;7232;-64
2021/03/19 01:16:39;;;;;;;;;;;;;;;;;;2071157;28;7013;-64
2021/03/19 01:17:42;;;;;;;;;;;;;;;;;;2071329;28;7100;-64
2021/03/19 01:18:44;;;;;;;;;;;;;;;;;;2071121;28;7096;-63
2021/03/19 01:19:48;;;;;;;;;;;;;;;;;;2072256;28;7013;-64
2021/03/19 01:20:51;;;;;;;;;;;;;;;;;;2070946;28;7085;-64
2021/03/19 01:21:52;;;;;;;;;;;;;;;;;;2078022;28;7073;-64
2021/03/19 01:22:54;;;;;;;;;;;;;;;;;;2074911;28;8007;-64
2021/03/19 01:23:56;;;;;;;;;;;;;;;;;;2078673;28;7005;-64
2021/03/19 01:24:58;;;;;;;;;;;;;;;;;;2079402;28;7010;-64
2021/03/19 01:26:00;;;;;;;;;;;;;;;;;;2079429;28;7108;-64
2021/03/19 01:27:02;;;;;;;;;;;;;;;;;;2079371;28;7088;-64
2021/03/19 01:28:05;;;;;;;;;;;;;;;;;;2079584;28;7021;-64
2021/03/19 01:29:07;;;;;;;;;;;;;;;;;;2078688;28;7029;-63
2021/03/19 01:30:10;;;;;;;;;;;;;;;;;;2078918;28;7109;-64
2021/03/19 01:31:13;;;;;;;;;;;;;;;;;;2071258;28;7009;-64
2021/03/19 01:32:15;;;;;;;;;;;;;;;;;;2071395;28;7126;-64
2021/03/19 01:33:18;;;;;;;;;;;;;;;;;;2071634;28;7092;-64
2021/03/19 01:34:20;;;;;;;;;;;;;;;;;;2071487;28;7206;-64
2021/03/19 01:35:24;;;;;;;;;;;;;;;;;;2071151;28;8056;-64
2021/03/19 01:36:26;;;;;;;;;;;;;;;;;;2071507;28;7168;-64
2021/03/19 01:37:29;;;;;;;;;;;;;;;;;;2075841;28;7116;-64
2021/03/19 01:38:32;;;;;;;;;;;;;;;;;;2079564;28;8023;-64
2021/03/19 01:39:34;;;;;;;;;;;;;;;;;;2079459;28;7557;-64
2021/03/19 01:40:37;;;;;;;;;;;;;;;;;;2070647;28;7313;-63
2021/03/19 01:41:43;;;;;;;;;;;;;;;;;;2070703;28;8004;-64
2021/03/19 01:42:47;;;;;;;;;;;;;;;;;;2071322;28;7009;-64
2021/03/19 01:43:52;;;;;;;;;;;;;;;;;;2071398;28;7037;-64
2021/03/19 01:45:12;;;;;;;;;;;;;;;;;;2071313;28;7009;-63
2021/03/19 01:46:33;;;;;;;;;;;;;;;;;;2070179;28;7022;-64
2021/03/19 01:47:54;;;;;;;;;;;;;;;;;;2073388;28;7009;-64
2021/03/19 01:49:14;;;;;;;;;;;;;;;;;;2079772;28;7042;-64
2021/03/19 01:50:35;;;;;;;;;;;;;;;;;;2078840;28;7205;-64
2021/03/19 01:51:55;;;;;;;;;;;;;;;;;;2079014;28;7009;-63
2021/03/19 01:53:15;;;;;;;;;;;;;;;;;;2079170;28;7046;-63
2021/03/19 01:54:36;;;;;;;;;;;;;;;;;;2073607;28;7154;-64
2021/03/19 01:55:57;;;;;;;;;;;;;;;;;;2071810;28;7010;-63
2021/03/19 01:57:17;;;;;;;;;;;;;;;;;;2071182;28;7088;-63
2021/03/19 01:58:38;;;;;;;;;;;;;;;;;;2070816;28;8136;-63
2021/03/19 01:59:58;;;;;;;;;;;;;;;;;;2070981;28;7097;-63
2021/03/19 02:01:18;;;;;;;;;;;;;;;;;;2070872;28;7009;-63
2021/03/19 02:02:40;;;;;;;;;;;;;;;;;;2071027;28;7333;-63
2021/03/19 02:04:02;;;;;;;;;;;;;;;;;;2071453;28;7053;-63
2021/03/19 02:05:22;;;;;;;;;;;;;;;;;;2071071;28;7041;-63
2021/03/19 02:06:43;;;;;;;;;;;;;;;;;;2071043;28;7010;-64
2021/03/19 02:08:03;;;;;;;;;;;;;;;;;;2071141;28;7013;-63
2021/03/19 02:09:24;;;;;;;;;;;;;;;;;;2070898;28;7092;-64
2021/03/19 02:10:44;;;;;;;;;;;;;;;;;;2070987;28;7013;-64
2021/03/19 02:12:05;;;;;;;;;;;;;;;;;;2070530;28;7145;-63
2021/03/19 02:13:25;;;;;;;;;;;;;;;;;;2070479;28;7413;-64
2021/03/19 02:14:47;;;;;;;;;;;;;;;;;;2070632;28;7042;-63
2021/03/19 02:16:07;;;;;;;;;;;;;;;;;;2077987;28;7010;-64
2021/03/19 02:17:28;;;;;;;;;;;;;;;;;;2078367;28;8029;-64
2021/03/19 02:18:49;;;;;;;;;;;;;;;;;;2069973;28;7192;-64
2021/03/19 02:20:09;;;;;;;;;;;;;;;;;;2070845;28;7033;-64
2021/03/19 02:21:30;;;;;;;;;;;;;;;;;;2071733;28;7013;-64
2021/03/19 02:22:50;;;;;;;;;;;;;;;;;;2077203;28;8013;-63
2021/03/19 02:24:11;;;;;;;;;;;;;;;;;;2070154;28;7137;-63
2021/03/19 02:25:31;;;;;;;;;;;;;;;;;;2074296;28;7186;-64
2021/03/19 02:26:52;;;;;;;;;;;;;;;;;;2079512;28;8118;-64
2021/03/19 02:28:13;;;;;;;;;;;;;;;;;;2079013;28;7013;-63
2021/03/19 02:29:33;;;;;;;;;;;;;;;;;;2078255;28;7058;-64
2021/03/19 02:30:54;;;;;;;;;;;;;;;;;;2075300;28;7248;-64
2021/03/19 02:31:58;;;;;;;;;;;;;;;;;;2070390;28;7010;-63
2021/03/19 02:33:01;;;;;;;;;;;;;;;;;;2070660;28;7524;-64
2021/03/19 02:34:03;;;;;;;;;;;;;;;;;;2070804;28;8064;-63
2021/03/19 02:35:08;;;;;;;;;;;;;;;;;;2070312;28;7321;-63
2021/03/19 02:36:10;;;;;;;;;;;;;;;;;;2070857;28;8089;-63
2021/03/19 02:37:16;;;;;;;;;;;;;;;;;;2072858;28;8331;-64
2021/03/19 02:38:18;;;;;;;;;;;;;;;;;;2078813;28;7006;-64
2021/03/19 02:39:20;;;;;;;;;;;;;;;;;;2077982;28;7125;-64
2021/03/19 02:40:23;;;;;;;;;;;;;;;;;;2073904;28;8059;-63
2021/03/19 02:41:25;;;;;;;;;;;;;;;;;;2071198;28;8047;-64
2021/03/19 02:42:31;;;;;;;;;;;;;;;;;;2070977;28;7017;-63
2021/03/19 02:43:33;;;;;;;;;;;;;;;;;;2070837;28;7156;-64
2021/03/19 02:44:36;;;;;;;;;;;;;;;;;;2069972;28;7115;-63
2021/03/19 02:45:38;;;;;;;;;;;;;;;;;;2062144;28;8013;-63
2021/03/19 02:46:40;;;;;;;;;;;;;;;;;;2069605;28;7014;-63
2021/03/19 02:47:42;;;;;;;;;;;;;;;;;;2070827;28;7113;-64
2021/03/19 02:48:44;;;;;;;;;;;;;;;;;;2070830;28;7084;-64
2021/03/19 02:49:47;;;;;;;;;;;;;;;;;;2070709;28;7042;-63
2021/03/19 02:50:53;;;;;;;;;;;;;;;;;;2070879;28;7037;-64
2021/03/19 02:51:55;;;;;;;;;;;;;;;;;;2071087;28;7088;-64
2021/03/19 02:52:57;;;;;;;;;;;;;;;;;;2070624;28;9058;-63
2021/03/19 02:53:59;;;;;;;;;;;;;;;;;;2070592;28;7009;-63
2021/03/19 02:55:04;;;;;;;;;;;;;;;;;;2070334;28;8048;-63
2021/03/19 02:56:08;;;;;;;;;;;;;;;;;;2071070;28;7250;-63
2021/03/19 02:57:10;;;;;;;;;;;;;;;;;;2070917;28;8053;-63
2021/03/19 02:58:12;;;;;;;;;;;;;;;;;;2071168;28;7009;-63
2021/03/19 02:59:15;;;;;;;;;;;;;;;;;;2070985;28;8009;-63
2021/03/19 03:00:18;;;;;;;;;;;;;;;;;;2070675;28;7312;-63
2021/03/19 03:01:20;;;;;;;;;;;;;;;;;;2070847;28;7005;-63
2021/03/19 03:02:23;;;;;;;;;;;;;;;;;;2070884;28;7009;-63
2021/03/19 03:03:25;;;;;;;;;;;;;;;;;;2070563;28;7096;-63
2021/03/19 03:04:27;;;;;;;;;;;;;;;;;;2070487;28;7109;-63
2021/03/19 03:05:30;;;;;;;;;;;;;;;;;;2070845;28;8008;-64
2021/03/19 03:06:36;;;;;;;;;;;;;;;;;;2069937;28;7045;-63
2021/03/19 03:07:38;;;;;;;;;;;;;;;;;;2071092;28;7021;-64
2021/03/19 03:08:40;;;;;;;;;;;;;;;;;;2071414;28;7092;-63
2021/03/19 03:09:42;;;;;;;;;;;;;;;;;;2070991;28;7137;-64
2021/03/19 03:10:45;;;;;;;;;;;;;;;;;;2069435;28;7482;-64
2021/03/19 03:11:47;;;;;;;;;;;;;;;;;;2072943;28;7081;-64
2021/03/19 03:12:49;;;;;;;;;;;;;;;;;;2070264;28;7009;-63
2021/03/19 03:13:51;;;;;;;;;;;;;;;;;;2070309;28;8056;-63
2021/03/19 03:14:54;;;;;;;;;;;;;;;;;;2074928;28;7096;-63
2021/03/19 03:15:56;;;;;;;;;;;;;;;;;;2070405;28;7009;-63
2021/03/19 03:17:00;;;;;;;;;;;;;;;;;;2070484;28;7041;-64
2021/03/19 03:18:03;;;;;;;;;;;;;;;;;;2073436;28;8055;-64
2021/03/19 03:19:06;;;;;;;;;;;;;;;;;;2072826;28;7092;-64
2021/03/19 03:20:11;;;;;;;;;;;;;;;;;;2076800;28;7009;-63
2021/03/19 03:21:15;;;;;;;;;;;;;;;;;;2075749;28;7100;-64
2021/03/19 03:22:17;;;;;;;;;;;;;;;;;;2071824;28;7031;-64
2021/03/19 03:23:20;;;;;;;;;;;;;;;;;;2077484;28;7033;-64
2021/03/19 03:24:24;;;;;;;;;;;;;;;;;;2072300;28;7107;-63
2021/03/19 03:25:26;;;;;;;;;;;;;;;;;;2076525;28;8035;-64
2021/03/19 03:26:29;;;;;;;;;;;;;;;;;;2072669;28;7342;-64
2021/03/19 03:27:31;;;;;;;;;;;;;;;;;;2071915;28;7116;-64
2021/03/19 03:28:33;;;;;;;;;;;;;;;;;;2078342;28;7139;-64
2021/03/19 03:29:35;;;;;;;;;;;;;;;;;;2068784;28;8045;-64
2021/03/19 03:30:48;;;;;;;;;;;;;;;;;;2069998;28;8054;-64
2021/03/19 03:31:51;;;;;;;;;;;;;;;;;;2069564;28;8025;-64
2021/03/19 03:32:53;;;;;;;;;;;;;;;;;;2071025;28;7013;-63
2021/03/19 03:33:56;;;;;;;;;;;;;;;;;;2071094;28;8082;-64
2021/03/19 03:34:57;;;;;;;;;;;;;;;;;;2070574;28;8028;-63
2021/03/19 03:36:00;;;;;;;;;;;;;;;;;;2070322;28;7097;-63
2021/03/19 03:37:02;;;;;;;;;;;;;;;;;;2071146;28;8005;-64
2021/03/19 03:38:06;;;;;;;;;;;;;;;;;;2078261;28;8000;-64
2021/03/19 03:39:11;;;;;;;;;;;;;;;;;;2078576;28;7105;-63
2021/03/19 03:40:17;;;;;;;;;;;;;;;;;;2078231;28;7138;-64
2021/03/19 03:41:21;;;;;;;;;;;;;;;;;;2077627;28;7049;-64
2021/03/19 03:42:23;;;;;;;;;;;;;;;;;;2070236;28;7009;-63
2021/03/19 03:43:25;;;;;;;;;;;;;;;;;;2070841;28;7113;-64
2021/03/19 03:44:27;;;;;;;;;;;;;;;;;;2071057;28;8135;-64
2021/03/19 03:45:29;;;;;;;;;;;;;;;;;;2070564;28;8079;-64
2021/03/19 03:46:31;;;;;;;;;;;;;;;;;;2069537;28;7038;-63
2021/03/19 03:47:34;;;;;;;;;;;;;;;;;;2072038;28;7147;-63
2021/03/19 03:48:36;;;;;;;;;;;;;;;;;;2072129;28;7045;-64
2021/03/19 03:49:38;;;;;;;;;;;;;;;;;;2075784;28;7133;-63
2021/03/19 03:50:41;;;;;;;;;;;;;;;;;;2075268;28;7009;-64
2021/03/19 03:51:43;;;;;;;;;;;;;;;;;;2072652;28;7013;-63
2021/03/19 03:52:45;;;;;;;;;;;;;;;;;;2072116;28;7021;-64
2021/03/19 03:53:47;;;;;;;;;;;;;;;;;;2072054;28;7014;-64
2021/03/19 03:54:49;;;;;;;;;;;;;;;;;;2072267;28;7203;-64
2021/03/19 03:55:51;;;;;;;;;;;;;;;;;;2072178;28;7046;-64
2021/03/19 03:56:53;;;;;;;;;;;;;;;;;;2072211;28;8072;-63
2021/03/19 03:57:55;;;;;;;;;;;;;;;;;;2071152;28;8032;-63
2021/03/19 03:58:57;;;;;;;;;;;;;;;;;;2072189;28;7132;-64
2021/03/19 03:59:59;;;;;;;;;;;;;;;;;;2072065;28;7014;-63
2021/03/19 04:01:02;;;;;;;;;;;;;;;;;;2071093;28;7009;-63
2021/03/19 04:02:15;;;;;;;;;;;;;;;;;;2071869;28;8097;-63
2021/03/19 04:03:17;;;;;;;;;;;;;;;;;;2071412;28;7074;-63
2021/03/19 04:04:19;;;;;;;;;;;;;;;;;;2071608;28;7093;-64
2021/03/19 04:05:28;;;;;;;;;;;;;;;;;;2071453;28;8010;-63
2021/03/19 04:06:30;;;;;;;;;;;;;;;;;;2071711;28;7025;-63
2021/03/19 04:07:32;;;;;;;;;;;;;;;;;;2071491;28;7961;-63
2021/03/19 04:08:35;;;;;;;;;;;;;;;;;;2072476;28;7089;-63
2021/03/19 04:09:37;;;;;;;;;;;;;;;;;;2072186;28;7116;-64
2021/03/19 04:10:39;;;;;;;;;;;;;;;;;;2071825;28;7116;-63
2021/03/19 04:11:41;;;;;;;;;;;;;;;;;;2071472;28;7009;-63
2021/03/19 04:12:44;;;;;;;;;;;;;;;;;;2071510;28;7161;-63
2021/03/19 04:13:46;;;;;;;;;;;;;;;;;;2076047;28;7344;-64
2021/03/19 04:14:49;;;;;;;;;;;;;;;;;;2072948;28;7361;-63
2021/03/19 04:15:51;;;;;;;;;;;;;;;;;;2071914;28;7112;-63
2021/03/19 04:16:55;;;;;;;;;;;;;;;;;;2070503;28;7014;-63
2021/03/19 04:17:59;;;;;;;;;;;;;;;;;;2075993;28;7014;-64
2021/03/19 04:19:02;;;;;;;;;;;;;;;;;;2078718;28;8046;-64
2021/03/19 04:20:06;;;;;;;;;;;;;;;;;;2070570;28;7112;-64
2021/03/19 04:21:09;;;;;;;;;;;;;;;;;;2072907;28;7992;-64
2021/03/19 04:22:11;;;;;;;;;;;;;;;;;;2079528;28;7104;-64
2021/03/19 04:23:13;;;;;;;;;;;;;;;;;;2073507;28;7009;-63
2021/03/19 04:24:15;;;;;;;;;;;;;;;;;;2071492;28;8024;-63
2021/03/19 04:25:19;;;;;;;;;;;;;;;;;;2071105;28;7106;-63
2021/03/19 04:26:24;;;;;;;;;;;;;;;;;;2071170;28;7149;-64
2021/03/19 04:27:29;;;;;;;;;;;;;;;;;;2072243;28;7009;-64
2021/03/19 04:28:36;;;;;;;;;;;;;;;;;;2072021;28;7109;-64
2021/03/19 04:29:38;;;;;;;;;;;;;;;;;;2071570;28;7009;-64
2021/03/19 04:30:41;;;;;;;;;;;;;;;;;;2072209;28;7137;-64
2021/03/19 04:31:43;;;;;;;;;;;;;;;;;;2071608;28;7070;-64
2021/03/19 04:32:45;;;;;;;;;;;;;;;;;;2071757;28;8227;-64
2021/03/19 04:33:49;;;;;;;;;;;;;;;;;;2072055;28;7130;-63
2021/03/19 04:34:53;;;;;;;;;;;;;;;;;;2071889;28;7126;-64
2021/03/19 04:36:05;;;;;;;;;;;;;;;;;;2072389;28;7005;-64
2021/03/19 04:37:09;;;;;;;;;;;;;;;;;;2073555;28;7113;-63
2021/03/19 04:38:15;;;;;;;;;;;;;;;;;;2079789;28;7983;-63
2021/03/19 04:39:23;;;;;;;;;;;;;;;;;;2080515;28;7042;-63
2021/03/19 04:40:26;;;;;;;;;;;;;;;;;;2080149;28;7005;-63
2021/03/19 04:41:29;;;;;;;;;;;;;;;;;;2079573;28;7010;-64
2021/03/19 04:42:31;;;;;;;;;;;;;;;;;;2080003;28;8313;-64
2021/03/19 04:43:34;;;;;;;;;;;;;;;;;;2071491;28;7092;-63
2021/03/19 04:44:39;;;;;;;;;;;;;;;;;;2072521;28;7284;-64
2021/03/19 04:45:42;;;;;;;;;;;;;;;;;;2072145;28;7013;-64
2021/03/19 04:46:44;;;;;;;;;;;;;;;;;;2072105;28;7049;-63
2021/03/19 04:47:47;;;;;;;;;;;;;;;;;;2072172;28;8039;-63
2021/03/19 04:48:49;;;;;;;;;;;;;;;;;;2072371;28;7013;-63
2021/03/19 04:49:51;;;;;;;;;;;;;;;;;;2070860;28;8013;-64
2021/03/19 04:50:53;;;;;;;;;;;;;;;;;;2071857;28;8035;-63
2021/03/19 04:51:55;;;;;;;;;;;;;;;;;;2071730;28;8075;-63
2021/03/19 04:52:57;;;;;;;;;;;;;;;;;;2071888;28;8099;-64
2021/03/19 04:53:59;;;;;;;;;;;;;;;;;;2071507;28;7013;-63
2021/03/19 04:55:03;;;;;;;;;;;;;;;;;;2072043;28;7009;-64
2021/03/19 04:56:05;;;;;;;;;;;;;;;;;;2072010;28;7245;-63
2021/03/19 04:57:07;;;;;;;;;;;;;;;;;;2070668;28;8013;-64
2021/03/19 04:58:09;;;;;;;;;;;;;;;;;;2078989;28;7125;-63
2021/03/19 04:59:11;;;;;;;;;;;;;;;;;;2079731;28;7005;-64
2021/03/19 05:00:14;;;;;;;;;;;;;;;;;;2079668;28;7009;-63
2021/03/19 05:01:17;;;;;;;;;;;;;;;;;;2079959;28;8058;-64
2021/03/19 05:02:40;;;;;;;;;;;;;;;;;;2079471;28;8072;-64
2021/03/19 05:03:43;;;;;;;;;;;;;;;;;;2079910;28;8080;-63
2021/03/19 05:04:45;;;;;;;;;;;;;;;;;;2079791;28;7325;-64
2021/03/19 05:05:49;;;;;;;;;;;;;;;;;;2079665;28;7125;-63
2021/03/19 05:06:53;;;;;;;;;;;;;;;;;;2079815;28;7017;-64
2021/03/19 05:07:55;;;;;;;;;;;;;;;;;;2079772;28;7013;-63
2021/03/19 05:08:57;;;;;;;;;;;;;;;;;;2080418;28;7013;-64
2021/03/19 05:09:59;;;;;;;;;;;;;;;;;;2071139;28;7013;-64
2021/03/19 05:11:02;;;;;;;;;;;;;;;;;;2072052;28;7241;-64
2021/03/19 05:12:04;;;;;;;;;;;;;;;;;;2073632;28;7046;-63
2021/03/19 05:13:07;;;;;;;;;;;;;;;;;;2071535;28;7021;-63
2021/03/19 05:14:09;;;;;;;;;;;;;;;;;;2071413;28;7195;-63
2021/03/19 05:15:12;;;;;;;;;;;;;;;;;;2071068;28;7022;-64
2021/03/19 05:16:14;;;;;;;;;;;;;;;;;;2071146;28;7148;-64
2021/03/19 05:17:16;;;;;;;;;;;;;;;;;;2071484;28;8018;-64
2021/03/19 05:18:18;;;;;;;;;;;;;;;;;;2075801;28;7018;-64
2021/03/19 05:19:22;;;;;;;;;;;;;;;;;;2070342;28;7017;-63
2021/03/19 05:20:23;;;;;;;;;;;;;;;;;;2074658;28;8727;-63
2021/03/19 05:21:25;;;;;;;;;;;;;;;;;;2075710;28;7130;-63
2021/03/19 05:22:44;;;;;;;;;;;;;;;;;;2070360;28;7180;-63
2021/03/19 05:23:46;;;;;;;;;;;;;;;;;;2072204;28;7982;-63
2021/03/19 05:24:48;;;;;;;;;;;;;;;;;;2079204;28;8001;-63
2021/03/19 05:25:50;;;;;;;;;;;;;;;;;;2078992;28;7109;-63
2021/03/19 05:26:52;;;;;;;;;;;;;;;;;;2079126;28;8011;-63
2021/03/19 05:27:54;;;;;;;;;;;;;;;;;;2079567;28;8416;-63
2021/03/19 05:28:56;;;;;;;;;;;;;;;;;;2079612;28;8073;-64
2021/03/19 05:29:58;;;;;;;;;;;;;;;;;;2079217;28;7112;-64
2021/03/19 05:31:01;;;;;;;;;;;;;;;;;;2073198;28;7037;-64
2021/03/19 05:32:03;;;;;;;;;;;;;;;;;;2070531;28;7121;-64
2021/03/19 05:33:06;;;;;;;;;;;;;;;;;;2071328;28;7084;-64
2021/03/19 05:34:10;;;;;;;;;;;;;;;;;;2071552;28;7361;-63
2021/03/19 05:35:13;;;;;;;;;;;;;;;;;;2070622;28;7244;-63
2021/03/19 05:36:17;;;;;;;;;;;;;;;;;;2070794;28;7013;-64
2021/03/19 05:37:20;;;;;;;;;;;;;;;;;;2075187;28;7600;-63
2021/03/19 05:38:22;;;;;;;;;;;;;;;;;;2079561;28;7260;-64
2021/03/19 05:39:25;;;;;;;;;;;;;;;;;;2079365;28;7096;-63
2021/03/19 05:40:39;;;;;;;;;;;;;;;;;;2079510;28;7092;-64
2021/03/19 05:41:43;;;;;;;;;;;;;;;;;;2079521;28;7088;-63
2021/03/19 05:42:45;;;;;;;;;;;;;;;;;;2077331;28;7403;-63
2021/03/19 05:43:52;;;;;;;;;;;;;;;;;;2071226;28;7013;-64
2021/03/19 05:45:14;;;;;;;;;;;;;;;;;;2071722;28;7073;-64
2021/03/19 05:46:17;;;;;;;;;;;;;;;;;;2071446;28;7089;-64
2021/03/19 05:47:20;;;;;;;;;;;;;;;;;;2070995;28;7100;-64
2021/03/19 05:48:24;;;;;;;;;;;;;;;;;;2071345;28;9007;-64
2021/03/19 05:49:29;;;;;;;;;;;;;;;;;;2071359;28;7096;-63
2021/03/19 05:50:34;;;;;;;;;;;;;;;;;;2071408;28;7013;-63
2021/03/19 05:51:47;;;;;;;;;;;;;;;;;;2070009;28;7031;-64
2021/03/19 05:53:18;;;;;;;;;;;;;;;;;;2071375;28;8043;-63
2021/03/19 05:54:19;;;;;;;;;;;;;;;;;;2071099;28;7049;-64
2021/03/19 05:55:24;;;;;;;;;;;;;;;;;;2071581;28;7014;-64
2021/03/19 05:56:30;;;;;;;;;;;;;;;;;;2070513;28;7092;-64
2021/03/19 05:57:33;;;;;;;;;;;;;;;;;;2071536;28;7009;-64
2021/03/19 05:58:35;;;;;;;;;;;;;;;;;;2071549;28;7113;-64
2021/03/19 05:59:39;;;;;;;;;;;;;;;;;;2077297;28;7014;-64
2021/03/19 06:00:41;;;;;;;;;;;;;;;;;;2079452;28;7017;-64
2021/03/19 06:01:43;;;;;;;;;;;;;;;;;;2079284;28;7013;-64
2021/03/19 06:02:45;;;;;;;;;;;;;;;;;;2079213;28;7993;-64
2021/03/19 06:03:49;;;;;;;;;;;;;;;;;;2079319;28;7013;-64
2021/03/19 06:05:10;;;;;;;;;;;;;;;;;;2078804;28;7155;-63
2021/03/19 06:06:12;;;;;;;;;;;;;;;;;;2079548;28;7336;-64
2021/03/19 06:07:14;;;;;;;;;;;;;;;;;;2079243;28;8060;-64
2021/03/19 06:08:26;;;;;;;;;;;;;;;;;;2079312;28;7009;-64
2021/03/19 06:09:37;;;;;;;;;;;;;;;;;;2078160;28;7554;-63
2021/03/19 06:10:40;;;;;;;;;;;;;;;;;;2072410;28;7109;-63
2021/03/19 06:11:48;;;;;;;;;;;;;;;;;;2070982;28;8013;-63
2021/03/19 06:13:00;;;;;;;;;;;;;;;;;;2070535;28;7092;-63
2021/03/19 06:14:14;;;;;;;;;;;;;;;;;;2070956;28;7045;-63
2021/03/19 06:15:25;;;;;;;;;;;;;;;;;;2069800;28;7045;-63
2021/03/19 06:16:40;;;;;;;;;;;;;;;;;;2070848;28;7009;-63
2021/03/19 06:17:45;;;;;;;;;;;;;;;;;;2071217;28;7366;-63
2021/03/19 06:18:50;;;;;;;;;;;;;;;;;;2074082;28;7168;-63
2021/03/19 06:20:06;;;;;;;;;;;;;;;;;;2070804;28;7105;-63
2021/03/19 06:21:08;;;;;;;;;;;;;;;;;;2071813;28;7296;-63
2021/03/19 06:22:19;;;;;;;;;;;;;;;;;;2079040;28;7042;-63
2021/03/19 06:23:31;;;;;;;;;;;;;;;;;;2070595;28;7092;-64
2021/03/19 06:24:35;;;;;;;;;;;;;;;;;;2071455;28;7010;-63
2021/03/19 06:25:38;;;;;;;;;;;;;;;;;;2075991;28;7046;-63
2021/03/19 06:26:41;;;;;;;;;;;;;;;;;;2078838;28;7009;-63
2021/03/19 06:27:54;;;;;;;;;;;;;;;;;;2078982;28;7100;-63
2021/03/19 06:29:05;;;;;;;;;;;;;;;;;;2078670;28;7017;-63
2021/03/19 06:30:17;;;;;;;;;;;;;;;;;;2071033;28;7009;-63
2021/03/19 06:31:23;;;;;;;;;;;;;;;;;;2073919;28;7092;-63
2021/03/19 06:32:28;;;;;;;;;;;;;;;;;;2076252;28;7009;-64
2021/03/19 06:33:30;;;;;;;;;;;;;;;;;;2071259;28;7010;-63
2021/03/19 06:34:33;;;;;;;;;;;;;;;;;;2070897;28;7078;-63
2021/03/19 06:35:36;;;;;;;;;;;;;;;;;;2071134;28;7097;-64
2021/03/19 06:36:53;;;;;;;;;;;;;;;;;;2070808;28;7105;-64
2021/03/19 06:37:55;;;;;;;;;;;;;;;;;;2070507;28;7029;-64
2021/03/19 06:39:06;;;;;;;;;;;;;;;;;;2071014;28;8030;-63
2021/03/19 06:40:20;;;;;;;;;;;;;;;;;;2070701;28;7383;-64
2021/03/19 06:41:29;;;;;;;;;;;;;;;;;;2070970;28;7219;-63
2021/03/19 06:42:34;;;;;;;;;;;;;;;;;;2079086;28;8006;-63
2021/03/19 06:43:37;;;;;;;;;;;;;;;;;;2079159;28;7017;-64
2021/03/19 06:44:40;;;;;;;;;;;;;;;;;;2078999;28;8173;-64
2021/03/19 06:45:42;;;;;;;;;;;;;;;;;;2078829;28;7021;-63
2021/03/19 06:46:46;;;;;;;;;;;;;;;;;;2072611;28;7088;-63
2021/03/19 06:47:54;;;;;;;;;;;;;;;;;;2070901;28;7091;-63
2021/03/19 06:48:56;;;;;;;;;;;;;;;;;;2071190;28;7038;-64
2021/03/19 06:49:58;;;;;;;;;;;;;;;;;;2070857;28;7009;-63
2021/03/19 06:51:00;;;;;;;;;;;;;;;;;;2071257;28;7014;-64
2021/03/19 06:52:20;;;;;;;;;;;;;;;;;;2069926;28;7009;-63
2021/03/19 06:53:28;;;;;;;;;;;;;;;;;;2070464;28;7009;-64
2021/03/19 06:54:49;;;;;;;;;;;;;;;;;;2070764;28;7017;-63
2021/03/19 06:55:56;;;;;;;;;;;;;;;;;;2075661;28;7014;-64
2021/03/19 06:57:03;;;;;;;;;;;;;;;;;;2078892;28;7116;-64
2021/03/19 06:58:05;;;;;;;;;;;;;;;;;;2077970;28;7287;-63
2021/03/19 06:59:18;;;;;;;;;;;;;;;;;;2075950;28;7021;-64
2021/03/19 07:00:46;;;;;;;;;;;;;;;;;;2071199;28;7042;-64
2021/03/19 07:01:48;;;;;;;;;;;;;;;;;;2062861;28;7006;-64
2021/03/19 07:03:09;;;;;;;;;;;;;;;;;;2071055;28;7151;-64
2021/03/19 07:04:31;;;;;;;;;;;;;;;;;;2071058;28;7320;-64
2021/03/19 07:05:44;;;;;;;;;;;;;;;;;;2070702;28;7304;-64
2021/03/19 07:06:52;;;;;;;;;;;;;;;;;;2070535;28;7104;-64
2021/03/19 07:08:09;;;;;;;;;;;;;;;;;;2070741;28;7017;-64
2021/03/19 07:09:34;;;;;;;;;;;;;;;;;;2071186;28;8054;-64
2021/03/19 07:10:37;;;;;;;;;;;;;;;;;;2070327;28;7017;-63
2021/03/19 07:11:59;;;;;;;;;;;;;;;;;;2074624;28;7127;-64
2021/03/19 07:13:07;;;;;;;;;;;;;;;;;;2061537;28;7136;-64
2021/03/19 07:14:13;;;;;;;;;;;;;;;;;;2070513;28;7130;-64
2021/03/19 07:15:33;;;;;;;;;;;;;;;;;;2069677;28;8055;-64
2021/03/19 07:16:41;;;;;;;;;;;;;;;;;;2072420;28;8082;-64
2021/03/19 07:18:03;;;;;;;;;;;;;;;;;;2073814;28;7013;-63
2021/03/19 07:19:14;;;;;;;;;;;;;;;;;;2075095;28;7096;-64
2021/03/19 07:20:22;;;;;;;;;;;;;;;;;;2075573;28;7276;-64
2021/03/19 07:21:50;;;;;;;;;;;;;;;;;;2070530;28;7014;-63
2021/03/19 07:22:58;;;;;;;;;;;;;;;;;;2071668;28;8001;-63
2021/03/19 07:24:28;;;;;;;;;;;;;;;;;;2074306;28;7324;-64
2021/03/19 07:25:34;;;;;;;;;;;;;;;;;;2068506;28;7034;-64
2021/03/19 07:26:39;;;;;;;;;;;;;;;;;;2070626;28;7136;-64
2021/03/19 07:27:53;;;;;;;;;;;;;;;;;;2070703;28;9007;-64
2021/03/19 07:29:14;;;;;;;;;;;;;;;;;;2069417;28;7009;-64
2021/03/19 07:30:16;;;;;;;;;;;;;;;;;;2069564;28;7009;-64
2021/03/19 07:31:27;;;;;;;;;;;;;;;;;;2070001;28;7010;-64
2021/03/19 07:32:38;;;;;;;;;;;;;;;;;;2070838;28;7049;-64
2021/03/19 07:33:58;;;;;;;;;;;;;;;;;;2069288;28;8024;-63
2021/03/19 07:35:00;;;;;;;;;;;;;;;;;;2070828;28;7006;-64
2021/03/19 07:36:20;;;;;;;;;;;;;;;;;;2069647;28;7039;-64
2021/03/19 07:37:38;;;;;;;;;;;;;;;;;;2074508;28;7128;-64
2021/03/19 07:38:47;;;;;;;;;;;;;;;;;;2078897;28;7013;-63